createdAt,value
2018-01-18T00:00:25.451Z,1003.28
2018-01-18T00:01:25.443Z,1003.28
2018-01-18T00:02:25.433Z,1003.29
2018-01-18T00:03:46.462Z,1003.30
2018-01-18T00:04:25.436Z,1003.28
2018-01-18T00:05:25.436Z,1003.25
2018-01-18T00:06:25.432Z,1003.26
2018-01-18T00:07:25.433Z,1003.25
2018-01-18T00:08:25.467Z,1003.21
2018-01-18T00:09:46.432Z,1003.24
2018-01-18T00:10:25.411Z,1003.19
2018-01-18T00:11:25.407Z,1003.19
2018-01-18T00:12:25.412Z,1003.18
2018-01-18T00:13:25.407Z,1003.15
2018-01-18T00:14:25.399Z,1003.16
2018-01-18T00:15:46.402Z,1003.14
2018-01-18T00:16:25.386Z,1003.13
2018-01-18T00:17:25.398Z,1003.12
2018-01-18T00:18:25.384Z,1003.15
2018-01-18T00:19:25.376Z,1003.09
2018-01-18T00:20:25.383Z,1003.13
2018-01-18T00:21:46.387Z,1003.10
2018-01-18T00:22:25.371Z,1003.07
2018-01-18T00:23:25.366Z,1003.10
2018-01-18T00:24:25.354Z,1003.03
2018-01-18T00:25:25.366Z,1003.00
2018-01-18T00:26:25.357Z,1003.01
2018-01-18T00:27:46.348Z,1002.94
2018-01-18T00:28:25.352Z,1002.96
2018-01-18T00:29:25.340Z,1002.92
2018-01-18T00:30:25.343Z,1002.90
2018-01-18T00:31:25.333Z,1002.85
2018-01-18T00:32:25.337Z,1002.90
2018-01-18T00:33:46.342Z,1002.85
2018-01-18T00:34:25.324Z,1002.83
2018-01-18T00:35:25.318Z,1002.92
2018-01-18T00:36:25.322Z,1002.82
2018-01-18T00:37:25.314Z,1002.78
2018-01-18T00:38:25.325Z,1002.74
2018-01-18T00:39:46.319Z,1002.78
2018-01-18T00:40:25.298Z,1002.78
2018-01-18T00:41:25.302Z,1002.73
2018-01-18T00:42:25.284Z,1002.71
2018-01-18T00:43:25.304Z,1002.72
2018-01-18T00:44:25.292Z,1002.64
2018-01-18T00:45:46.279Z,1002.60
2018-01-18T00:46:25.281Z,1002.56
2018-01-18T00:47:25.273Z,1002.51
2018-01-18T00:48:25.273Z,1002.51
2018-01-18T00:49:25.265Z,1002.41
2018-01-18T00:50:25.264Z,1002.44
2018-01-18T00:51:46.263Z,1002.38
2018-01-18T00:52:25.264Z,1002.36
2018-01-18T00:53:25.249Z,1002.37
2018-01-18T00:54:25.273Z,1002.36
2018-01-18T00:55:25.244Z,1002.41
2018-01-18T00:56:25.253Z,1002.36
2018-01-18T00:57:46.249Z,1002.31
2018-01-18T00:58:25.244Z,1002.20
2018-01-18T00:59:25.237Z,1002.19
2018-01-18T01:00:25.229Z,1002.20
2018-01-18T01:01:25.228Z,1002.28
2018-01-18T01:02:25.235Z,1002.21
2018-01-18T01:03:46.232Z,1002.20
2018-01-18T01:04:25.208Z,1002.13
2018-01-18T01:05:25.213Z,1002.09
2018-01-18T01:06:25.214Z,1002.03
2018-01-18T01:07:25.204Z,1001.96
2018-01-18T01:08:25.199Z,1001.94
2018-01-18T01:09:46.198Z,1001.89
2018-01-18T01:10:25.188Z,1001.84
2018-01-18T01:11:25.191Z,1001.87
2018-01-18T01:12:25.175Z,1001.82
2018-01-18T01:13:25.170Z,1001.81
2018-01-18T01:14:25.184Z,1001.78
2018-01-18T01:15:46.184Z,1001.71
2018-01-18T01:16:25.174Z,1001.67
2018-01-18T01:17:25.154Z,1001.65
2018-01-18T01:18:25.160Z,1001.63
2018-01-18T01:19:25.154Z,1001.63
2018-01-18T01:20:25.145Z,1001.59
2018-01-18T01:21:46.166Z,1001.55
2018-01-18T01:22:25.140Z,1001.57
2018-01-18T01:23:25.138Z,1001.54
2018-01-18T01:24:25.140Z,1001.51
2018-01-18T01:25:25.134Z,1001.52
2018-01-18T01:26:25.128Z,1001.50
2018-01-18T01:27:46.130Z,1001.51
2018-01-18T01:28:25.123Z,1001.44
2018-01-18T01:29:25.119Z,1001.44
2018-01-18T01:30:25.120Z,1001.45
2018-01-18T01:31:25.109Z,1001.41
2018-01-18T01:32:25.104Z,1001.39
2018-01-18T01:33:46.113Z,1001.34
2018-01-18T01:34:25.099Z,1001.34
2018-01-18T01:35:25.104Z,1001.35
2018-01-18T01:36:25.090Z,1001.34
2018-01-18T01:37:25.097Z,1001.35
2018-01-18T01:38:25.081Z,1001.34
2018-01-18T01:39:46.105Z,1001.29
2018-01-18T01:40:25.080Z,1001.27
2018-01-18T01:41:25.069Z,1001.25
2018-01-18T01:42:25.068Z,1001.25
2018-01-18T01:43:25.065Z,1001.25
2018-01-18T01:44:25.062Z,1001.25
2018-01-18T01:45:46.058Z,1001.20
2018-01-18T01:46:25.045Z,1001.16
2018-01-18T01:47:25.062Z,1001.14
2018-01-18T01:48:25.054Z,1001.12
2018-01-18T01:49:25.035Z,1001.07
2018-01-18T01:50:25.043Z,1001.03
2018-01-18T01:51:46.038Z,1001.01
2018-01-18T01:52:25.029Z,1000.95
2018-01-18T01:53:25.019Z,1000.91
2018-01-18T01:54:25.018Z,1000.84
2018-01-18T01:55:25.020Z,1000.80
2018-01-18T01:56:25.011Z,1000.80
2018-01-18T01:57:46.015Z,1000.70
2018-01-18T01:58:25.025Z,1000.62
2018-01-18T01:59:26.853Z,1000.54
2018-01-18T02:00:25.016Z,1000.47
2018-01-18T02:01:24.993Z,1000.43
2018-01-18T02:02:24.989Z,1000.43
2018-01-18T02:03:45.989Z,1000.43
2018-01-18T02:04:24.983Z,1000.44
2018-01-18T02:05:24.985Z,1000.42
2018-01-18T02:06:24.985Z,1000.43
2018-01-18T02:07:24.981Z,1000.38
2018-01-18T02:08:24.971Z,1000.34
2018-01-18T02:09:45.976Z,1000.37
2018-01-18T02:10:24.961Z,1000.32
2018-01-18T02:11:24.953Z,1000.31
2018-01-18T02:12:24.959Z,1000.28
2018-01-18T02:13:24.961Z,1000.35
2018-01-18T02:14:24.953Z,1000.40
2018-01-18T02:15:45.955Z,1000.37
2018-01-18T02:16:24.940Z,1000.32
2018-01-18T02:17:24.939Z,1000.29
2018-01-18T02:18:24.932Z,1000.29
2018-01-18T02:19:24.922Z,1000.32
2018-01-18T02:20:24.931Z,1000.32
2018-01-18T02:21:45.929Z,1000.39
2018-01-18T02:22:24.931Z,1000.36
2018-01-18T02:23:24.912Z,1000.32
2018-01-18T02:24:24.910Z,1000.30
2018-01-18T02:25:24.905Z,1000.24
2018-01-18T02:26:24.896Z,1000.20
2018-01-18T02:27:45.900Z,1000.16
2018-01-18T02:28:24.880Z,1000.11
2018-01-18T02:29:24.884Z,1000.04
2018-01-18T02:30:24.925Z,999.96
2018-01-18T02:31:24.879Z,999.95
2018-01-18T02:32:24.878Z,999.90
2018-01-18T02:33:45.884Z,999.95
2018-01-18T02:34:24.913Z,999.89
2018-01-18T02:35:24.871Z,999.90
2018-01-18T02:36:24.866Z,999.82
2018-01-18T02:37:24.866Z,999.83
2018-01-18T02:38:24.856Z,999.77
2018-01-18T02:39:45.862Z,999.75
2018-01-18T02:40:24.849Z,999.76
2018-01-18T02:41:24.850Z,999.69
2018-01-18T02:42:24.840Z,999.61
2018-01-18T02:43:24.841Z,999.55
2018-01-18T02:44:24.831Z,999.55
2018-01-18T02:45:45.844Z,999.52
2018-01-18T02:46:24.836Z,999.46
2018-01-18T02:47:24.829Z,999.39
2018-01-18T02:48:24.824Z,999.35
2018-01-18T02:49:24.834Z,999.25
2018-01-18T02:50:24.815Z,999.20
2018-01-18T02:51:45.821Z,999.16
2018-01-18T02:52:24.810Z,999.13
2018-01-18T02:53:24.802Z,999.06
2018-01-18T02:54:24.794Z,998.99
2018-01-18T02:55:24.795Z,998.94
2018-01-18T02:56:24.799Z,998.93
2018-01-18T02:57:45.801Z,998.87
2018-01-18T02:58:24.780Z,998.88
2018-01-18T02:59:24.801Z,998.82
2018-01-18T03:00:24.772Z,998.79
2018-01-18T03:01:24.771Z,998.76
2018-01-18T03:02:24.762Z,998.72
2018-01-18T03:03:45.770Z,998.66
2018-01-18T03:04:24.760Z,998.64
2018-01-18T03:05:24.755Z,998.55
2018-01-18T03:06:24.760Z,998.52
2018-01-18T03:07:24.749Z,998.45
2018-01-18T03:08:24.746Z,998.40
2018-01-18T03:09:45.750Z,998.29
2018-01-18T03:10:24.740Z,998.22
2018-01-18T03:11:24.731Z,998.18
2018-01-18T03:12:24.736Z,998.11
2018-01-18T03:13:24.720Z,998.14
2018-01-18T03:14:24.720Z,998.06
2018-01-18T03:15:45.732Z,998.07
2018-01-18T03:16:24.715Z,997.95
2018-01-18T03:17:24.713Z,997.92
2018-01-18T03:18:24.706Z,997.87
2018-01-18T03:19:24.714Z,997.80
2018-01-18T03:20:24.696Z,997.77
2018-01-18T03:21:45.696Z,997.63
2018-01-18T03:22:24.695Z,997.56
2018-01-18T03:23:24.696Z,997.52
2018-01-18T03:24:24.702Z,997.44
2018-01-18T03:25:24.685Z,997.40
2018-01-18T03:26:24.681Z,997.38
2018-01-18T03:27:45.682Z,997.40
2018-01-18T03:28:24.665Z,997.36
2018-01-18T03:29:24.670Z,997.22
2018-01-18T03:30:24.667Z,997.21
2018-01-18T03:31:24.657Z,997.23
2018-01-18T03:32:24.654Z,997.23
2018-01-18T03:33:45.668Z,997.09
2018-01-18T03:34:24.666Z,997.10
2018-01-18T03:35:24.634Z,997.05
2018-01-18T03:36:24.636Z,996.88
2018-01-18T03:37:24.633Z,996.87
2018-01-18T03:38:24.638Z,996.75
2018-01-18T03:39:45.637Z,996.75
2018-01-18T03:40:24.632Z,996.68
2018-01-18T03:41:24.618Z,996.68
2018-01-18T03:42:24.622Z,996.61
2018-01-18T03:43:24.633Z,996.57
2018-01-18T03:44:24.617Z,996.50
2018-01-18T03:45:45.615Z,996.37
2018-01-18T03:46:24.598Z,996.36
2018-01-18T03:47:24.600Z,996.28
2018-01-18T03:48:24.597Z,996.21
2018-01-18T03:49:24.640Z,996.15
2018-01-18T03:50:24.589Z,996.14
2018-01-18T03:51:45.602Z,996.05
2018-01-18T03:52:24.575Z,995.96
2018-01-18T03:53:24.608Z,995.97
2018-01-18T03:54:24.572Z,995.81
2018-01-18T03:55:24.578Z,995.76
2018-01-18T03:56:24.561Z,995.74
2018-01-18T03:57:45.566Z,995.63
2018-01-18T03:58:24.562Z,995.55
2018-01-18T03:59:24.548Z,995.54
2018-01-18T04:00:24.547Z,995.48
2018-01-18T04:01:24.554Z,995.40
2018-01-18T04:02:24.543Z,995.38
2018-01-18T04:03:45.547Z,995.33
2018-01-18T04:04:24.524Z,995.28
2018-01-18T04:05:24.532Z,995.25
2018-01-18T04:06:24.528Z,995.21
2018-01-18T04:07:24.526Z,995.18
2018-01-18T04:08:24.517Z,995.14
2018-01-18T04:09:45.521Z,995.03
2018-01-18T04:10:24.512Z,995.00
2018-01-18T04:11:24.528Z,994.94
2018-01-18T04:12:24.503Z,994.95
2018-01-18T04:13:24.503Z,994.94
2018-01-18T04:14:24.504Z,994.79
2018-01-18T04:15:45.502Z,994.75
2018-01-18T04:16:24.492Z,994.67
2018-01-18T04:17:24.481Z,994.59
2018-01-18T04:18:24.473Z,994.61
2018-01-18T04:19:24.472Z,994.55
2018-01-18T04:20:24.473Z,994.68
2018-01-18T04:21:45.471Z,994.55
2018-01-18T04:22:24.458Z,994.53
2018-01-18T04:23:24.468Z,994.45
2018-01-18T04:24:24.449Z,994.41
2018-01-18T04:25:24.458Z,994.30
2018-01-18T04:26:24.447Z,994.21
2018-01-18T04:27:45.457Z,994.20
2018-01-18T04:28:24.436Z,994.13
2018-01-18T04:29:24.442Z,994.13
2018-01-18T04:30:24.437Z,993.98
2018-01-18T04:31:24.440Z,993.89
2018-01-18T04:32:24.421Z,993.84
2018-01-18T04:33:45.439Z,993.75
2018-01-18T04:34:24.436Z,993.74
2018-01-18T04:35:24.424Z,993.65
2018-01-18T04:36:24.406Z,993.60
2018-01-18T04:37:24.414Z,993.50
2018-01-18T04:38:24.397Z,993.47
2018-01-18T04:39:45.403Z,993.36
2018-01-18T04:40:24.397Z,993.42
2018-01-18T04:41:24.397Z,993.26
2018-01-18T04:42:24.398Z,993.32
2018-01-18T04:43:24.383Z,993.31
2018-01-18T04:44:24.383Z,993.27
2018-01-18T04:45:45.393Z,993.21
2018-01-18T04:46:24.377Z,993.21
2018-01-18T04:47:24.381Z,993.20
2018-01-18T04:48:24.371Z,993.05
2018-01-18T04:49:24.373Z,993.05
2018-01-18T04:50:24.363Z,993.15
2018-01-18T04:51:45.368Z,993.00
2018-01-18T04:52:24.344Z,992.96
2018-01-18T04:53:24.363Z,992.85
2018-01-18T04:54:24.348Z,992.81
2018-01-18T04:55:24.344Z,992.74
2018-01-18T04:56:24.337Z,992.70
2018-01-18T04:57:45.344Z,992.72
2018-01-18T04:58:24.339Z,992.70
2018-01-18T04:59:24.326Z,992.64
2018-01-18T05:00:24.329Z,992.60
2018-01-18T05:01:24.321Z,992.53
2018-01-18T05:02:24.316Z,992.60
2018-01-18T05:03:45.352Z,992.54
2018-01-18T05:04:24.311Z,992.41
2018-01-18T05:05:24.302Z,992.40
2018-01-18T05:06:24.313Z,992.30
2018-01-18T05:07:24.294Z,992.24
2018-01-18T05:08:24.293Z,992.20
2018-01-18T05:09:45.297Z,992.22
2018-01-18T05:10:24.284Z,992.06
2018-01-18T05:11:24.284Z,992.07
2018-01-18T05:12:24.283Z,991.99
2018-01-18T05:13:24.272Z,992.01
2018-01-18T05:14:24.275Z,992.02
2018-01-18T05:15:45.284Z,992.00
2018-01-18T05:16:24.262Z,992.00
2018-01-18T05:17:24.254Z,991.86
2018-01-18T05:18:24.314Z,991.77
2018-01-18T05:19:24.259Z,991.67
2018-01-18T05:20:24.247Z,991.76
2018-01-18T05:21:45.257Z,991.74
2018-01-18T05:22:24.248Z,991.73
2018-01-18T05:23:24.242Z,991.52
2018-01-18T05:24:24.237Z,991.53
2018-01-18T05:25:24.229Z,991.54
2018-01-18T05:26:24.242Z,991.50
2018-01-18T05:27:45.244Z,991.46
2018-01-18T05:28:24.219Z,991.43
2018-01-18T05:29:24.232Z,991.37
2018-01-18T05:30:24.219Z,991.30
2018-01-18T05:31:24.214Z,991.31
2018-01-18T05:32:24.210Z,991.22
2018-01-18T05:33:45.213Z,991.27
2018-01-18T05:34:24.200Z,991.16
2018-01-18T05:35:24.210Z,991.13
2018-01-18T05:36:24.193Z,991.00
2018-01-18T05:37:24.193Z,990.99
2018-01-18T05:38:24.178Z,991.00
2018-01-18T05:39:45.187Z,991.04
2018-01-18T05:40:24.188Z,991.04
2018-01-18T05:41:24.178Z,990.87
2018-01-18T05:42:24.170Z,990.85
2018-01-18T05:43:24.169Z,990.79
2018-01-18T05:44:24.169Z,990.66
2018-01-18T05:45:45.163Z,990.64
2018-01-18T05:46:24.154Z,990.69
2018-01-18T05:47:24.143Z,990.73
2018-01-18T05:48:24.150Z,990.71
2018-01-18T05:49:24.144Z,990.70
2018-01-18T05:50:24.924Z,990.74
2018-01-18T05:51:45.138Z,990.69
2018-01-18T05:52:24.129Z,990.77
2018-01-18T05:53:24.123Z,990.82
2018-01-18T05:54:24.116Z,990.94
2018-01-18T05:55:24.125Z,990.97
2018-01-18T05:56:24.114Z,990.85
2018-01-18T05:57:45.114Z,990.48
2018-01-18T05:58:24.114Z,990.41
2018-01-18T05:59:24.108Z,989.83
2018-01-18T06:00:24.100Z,989.83
2018-01-18T06:01:24.094Z,990.08
2018-01-18T06:02:24.099Z,990.19
2018-01-18T06:03:45.103Z,990.27
2018-01-18T06:04:24.087Z,990.20
2018-01-18T06:05:24.083Z,990.14
2018-01-18T06:06:24.080Z,990.06
2018-01-18T06:07:24.092Z,989.98
2018-01-18T06:08:24.064Z,990.09
2018-01-18T06:09:45.076Z,990.01
2018-01-18T06:10:24.068Z,989.88
2018-01-18T06:11:24.055Z,989.83
2018-01-18T06:12:24.060Z,989.77
2018-01-18T06:13:24.054Z,989.69
2018-01-18T06:14:24.049Z,989.60
2018-01-18T06:15:45.055Z,989.56
2018-01-18T06:16:24.048Z,989.47
2018-01-18T06:17:24.039Z,989.54
2018-01-18T06:18:24.048Z,989.49
2018-01-18T06:19:24.030Z,989.50
2018-01-18T06:20:24.035Z,989.39
2018-01-18T06:21:45.043Z,989.29
2018-01-18T06:22:24.009Z,989.28
2018-01-18T06:23:24.005Z,989.20
2018-01-18T06:24:24.010Z,989.13
2018-01-18T06:25:23.998Z,989.19
2018-01-18T06:26:24.015Z,989.28
2018-01-18T06:27:44.996Z,989.24
2018-01-18T06:28:24.006Z,989.12
2018-01-18T06:29:23.989Z,989.38
2018-01-18T06:30:23.994Z,989.21
2018-01-18T06:31:23.990Z,989.24
2018-01-18T06:32:23.979Z,989.45
2018-01-18T06:33:44.996Z,989.52
2018-01-18T06:34:23.975Z,989.40
2018-01-18T06:35:23.973Z,989.14
2018-01-18T06:36:23.969Z,988.75
2018-01-18T06:37:23.970Z,988.94
2018-01-18T06:38:23.960Z,988.82
2018-01-18T06:39:44.979Z,988.87
2018-01-18T06:40:23.939Z,988.90
2018-01-18T06:41:23.954Z,988.73
2018-01-18T06:42:23.941Z,988.67
2018-01-18T06:43:23.941Z,988.62
2018-01-18T06:44:23.935Z,988.53
2018-01-18T06:45:44.946Z,988.66
2018-01-18T06:46:23.951Z,988.53
2018-01-18T06:47:23.924Z,988.37
2018-01-18T06:48:23.940Z,988.40
2018-01-18T06:49:23.919Z,988.42
2018-01-18T06:50:23.914Z,988.30
2018-01-18T06:51:44.924Z,988.32
2018-01-18T06:52:23.907Z,988.44
2018-01-18T06:53:23.909Z,988.42
2018-01-18T06:54:23.903Z,988.52
2018-01-18T06:55:23.901Z,988.55
2018-01-18T06:56:23.892Z,988.55
2018-01-18T06:57:44.901Z,988.41
2018-01-18T06:58:23.886Z,988.42
2018-01-18T06:59:23.890Z,988.39
2018-01-18T07:00:23.868Z,988.50
2018-01-18T07:01:23.876Z,988.53
2018-01-18T07:02:23.873Z,988.34
2018-01-18T07:03:44.871Z,988.21
2018-01-18T07:04:23.860Z,988.29
2018-01-18T07:05:23.857Z,988.45
2018-01-18T07:06:23.855Z,988.21
2018-01-18T07:07:23.860Z,988.27
2018-01-18T07:08:23.850Z,988.14
2018-01-18T07:09:44.851Z,988.19
2018-01-18T07:10:23.850Z,988.36
2018-01-18T07:11:23.848Z,988.36
2018-01-18T07:12:23.831Z,988.23
2018-01-18T07:13:23.836Z,988.16
2018-01-18T07:14:23.830Z,988.21
2018-01-18T07:15:44.826Z,988.18
2018-01-18T07:16:23.818Z,988.14
2018-01-18T07:17:23.822Z,988.29
2018-01-18T07:18:23.810Z,988.28
2018-01-18T07:19:23.812Z,988.21
2018-01-18T07:20:23.799Z,988.22
2018-01-18T07:21:44.805Z,988.21
2018-01-18T07:22:23.796Z,988.15
2018-01-18T07:23:23.787Z,988.12
2018-01-18T07:24:23.781Z,988.02
2018-01-18T07:25:23.784Z,987.83
2018-01-18T07:26:23.782Z,988.03
2018-01-18T07:27:44.782Z,988.13
2018-01-18T07:28:23.787Z,987.95
2018-01-18T07:29:23.766Z,987.97
2018-01-18T07:30:23.768Z,987.87
2018-01-18T07:31:23.761Z,987.98
2018-01-18T07:32:23.765Z,987.87
2018-01-18T07:33:44.760Z,987.85
2018-01-18T07:34:23.757Z,987.86
2018-01-18T07:35:23.752Z,987.88
2018-01-18T07:36:23.749Z,987.85
2018-01-18T07:37:23.739Z,987.74
2018-01-18T07:38:23.740Z,987.55
2018-01-18T07:39:44.740Z,987.65
2018-01-18T07:40:23.725Z,987.65
2018-01-18T07:41:23.730Z,987.62
2018-01-18T07:42:23.725Z,987.68
2018-01-18T07:43:23.715Z,987.72
2018-01-18T07:44:23.710Z,987.65
2018-01-18T07:45:44.719Z,987.57
2018-01-18T07:46:23.722Z,987.60
2018-01-18T07:47:23.707Z,987.72
2018-01-18T07:48:23.705Z,987.62
2018-01-18T07:49:23.694Z,987.67
2018-01-18T07:50:23.694Z,987.70
2018-01-18T07:51:44.700Z,987.63
2018-01-18T07:52:23.688Z,987.54
2018-01-18T07:53:23.702Z,987.73
2018-01-18T07:54:23.686Z,987.65
2018-01-18T07:55:23.675Z,987.54
2018-01-18T07:56:23.662Z,987.53
2018-01-18T07:57:44.668Z,987.62
2018-01-18T07:58:23.660Z,987.59
2018-01-18T07:59:23.656Z,987.43
2018-01-18T08:00:23.656Z,987.50
2018-01-18T08:01:23.658Z,987.47
2018-01-18T08:02:23.665Z,987.49
2018-01-18T08:03:44.651Z,987.52
2018-01-18T08:04:23.637Z,987.33
2018-01-18T08:05:23.645Z,987.29
2018-01-18T08:06:23.627Z,987.49
2018-01-18T08:07:23.626Z,987.58
2018-01-18T08:08:23.626Z,987.54
2018-01-18T08:09:44.638Z,987.59
2018-01-18T08:10:23.616Z,987.52
2018-01-18T08:11:23.621Z,987.34
2018-01-18T08:12:23.603Z,987.36
2018-01-18T08:13:23.602Z,987.43
2018-01-18T08:14:23.603Z,987.32
2018-01-18T08:15:44.617Z,987.31
2018-01-18T08:16:23.599Z,987.25
2018-01-18T08:17:23.583Z,987.11
2018-01-18T08:18:23.583Z,987.25
2018-01-18T08:19:23.586Z,987.33
2018-01-18T08:20:23.588Z,987.32
2018-01-18T08:21:44.586Z,987.39
2018-01-18T08:22:23.571Z,987.29
2018-01-18T08:23:23.576Z,987.24
2018-01-18T08:24:23.561Z,987.36
2018-01-18T08:25:23.552Z,987.16
2018-01-18T08:26:23.563Z,987.24
2018-01-18T08:27:44.562Z,987.46
2018-01-18T08:28:23.552Z,987.23
2018-01-18T08:29:23.549Z,987.19
2018-01-18T08:30:23.534Z,987.13
2018-01-18T08:31:23.552Z,987.22
2018-01-18T08:32:23.532Z,987.06
2018-01-18T08:33:44.532Z,987.18
2018-01-18T08:34:23.529Z,987.11
2018-01-18T08:35:23.519Z,987.01
2018-01-18T08:36:23.516Z,987.16
2018-01-18T08:37:23.512Z,986.83
2018-01-18T08:38:23.513Z,987.11
2018-01-18T08:39:44.519Z,987.01
2018-01-18T08:40:23.494Z,987.10
2018-01-18T08:41:23.505Z,987.06
2018-01-18T08:42:23.495Z,986.98
2018-01-18T08:43:23.506Z,986.98
2018-01-18T08:44:23.494Z,987.39
2018-01-18T08:45:44.488Z,986.87
2018-01-18T08:46:23.484Z,987.12
2018-01-18T08:47:23.487Z,986.98
2018-01-18T08:48:23.482Z,986.93
2018-01-18T08:49:23.467Z,986.94
2018-01-18T08:50:23.457Z,987.05
2018-01-18T08:51:44.477Z,987.08
2018-01-18T08:52:23.462Z,986.94
2018-01-18T08:53:23.456Z,986.93
2018-01-18T08:54:23.447Z,987.03
2018-01-18T08:55:23.451Z,986.99
2018-01-18T08:56:23.442Z,986.84
2018-01-18T08:57:44.452Z,986.72
2018-01-18T08:58:23.439Z,986.83
2018-01-18T08:59:23.433Z,986.79
2018-01-18T09:00:23.420Z,986.88
2018-01-18T09:01:23.428Z,986.78
2018-01-18T09:02:23.438Z,987.04
2018-01-18T09:03:44.429Z,986.78
2018-01-18T09:04:23.429Z,986.91
2018-01-18T09:05:23.415Z,986.85
2018-01-18T09:06:23.423Z,987.03
2018-01-18T09:07:23.404Z,986.81
2018-01-18T09:08:23.402Z,986.92
2018-01-18T09:09:44.408Z,986.75
2018-01-18T09:10:23.395Z,986.71
2018-01-18T09:11:23.403Z,986.80
2018-01-18T09:12:23.382Z,986.89
2018-01-18T09:13:23.380Z,986.85
2018-01-18T09:14:23.372Z,986.94
2018-01-18T09:15:44.383Z,986.95
2018-01-18T09:16:23.369Z,987.07
2018-01-18T09:17:23.365Z,986.84
2018-01-18T09:18:23.365Z,987.08
2018-01-18T09:19:23.359Z,987.22
2018-01-18T09:20:23.355Z,987.10
2018-01-18T09:21:44.368Z,986.89
2018-01-18T09:22:23.348Z,987.12
2018-01-18T09:23:23.359Z,986.89
2018-01-18T09:24:23.344Z,987.10
2018-01-18T09:25:23.337Z,987.05
2018-01-18T09:26:23.333Z,987.19
2018-01-18T09:27:44.340Z,987.23
2018-01-18T09:28:23.332Z,987.22
2018-01-18T09:29:23.324Z,987.25
2018-01-18T09:30:23.328Z,987.26
2018-01-18T09:31:23.320Z,987.45
2018-01-18T09:32:23.310Z,987.36
2018-01-18T09:33:44.313Z,987.16
2018-01-18T09:34:23.303Z,987.39
2018-01-18T09:35:23.303Z,987.49
2018-01-18T09:36:23.299Z,987.22
2018-01-18T09:37:23.290Z,987.35
2018-01-18T09:38:23.284Z,987.32
2018-01-18T09:39:44.305Z,987.57
2018-01-18T09:40:23.288Z,987.34
2018-01-18T09:41:23.307Z,987.51
2018-01-18T09:42:23.283Z,987.84
2018-01-18T09:43:23.280Z,987.82
2018-01-18T09:44:23.266Z,987.65
2018-01-18T09:45:44.277Z,987.64
2018-01-18T09:46:23.278Z,987.57
2018-01-18T09:47:23.259Z,987.83
2018-01-18T09:48:23.263Z,987.89
2018-01-18T09:49:23.245Z,987.48
2018-01-18T09:50:23.250Z,987.70
2018-01-18T09:51:44.265Z,987.76
2018-01-18T09:52:23.247Z,988.03
2018-01-18T09:53:23.243Z,988.17
2018-01-18T09:54:23.228Z,987.91
2018-01-18T09:55:23.248Z,988.04
2018-01-18T09:56:23.223Z,988.19
2018-01-18T09:57:44.225Z,988.23
2018-01-18T09:58:23.218Z,987.97
2018-01-18T09:59:23.219Z,988.10
2018-01-18T10:00:23.210Z,988.14
2018-01-18T10:01:23.214Z,988.31
2018-01-18T10:02:23.210Z,988.16
2018-01-18T10:03:44.205Z,988.32
2018-01-18T10:04:23.200Z,988.40
2018-01-18T10:05:23.193Z,988.27
2018-01-18T10:06:23.214Z,988.64
2018-01-18T10:07:23.196Z,988.47
2018-01-18T10:08:23.183Z,988.45
2018-01-18T10:09:44.196Z,988.62
2018-01-18T10:10:23.176Z,988.61
2018-01-18T10:11:23.189Z,988.67
2018-01-18T10:12:23.166Z,988.48
2018-01-18T10:13:23.150Z,988.63
2018-01-18T10:14:23.159Z,988.85
2018-01-18T10:15:44.170Z,988.85
2018-01-18T10:16:23.155Z,988.99
2018-01-18T10:17:23.156Z,988.97
2018-01-18T10:18:23.158Z,989.24
2018-01-18T10:19:23.143Z,989.29
2018-01-18T10:20:23.135Z,989.44
2018-01-18T10:21:44.144Z,989.82
2018-01-18T10:22:23.134Z,989.70
2018-01-18T10:23:23.133Z,989.84
2018-01-18T10:24:23.114Z,989.81
2018-01-18T10:25:23.114Z,989.88
2018-01-18T10:26:23.134Z,989.71
2018-01-18T10:27:44.117Z,990.00
2018-01-18T10:28:23.110Z,990.20
2018-01-18T10:29:23.107Z,990.05
2018-01-18T10:30:23.101Z,990.12
2018-01-18T10:31:23.106Z,990.02
2018-01-18T10:32:23.094Z,990.40
2018-01-18T10:33:44.097Z,990.24
2018-01-18T10:34:23.091Z,990.43
2018-01-18T10:35:23.104Z,990.50
2018-01-18T10:36:23.075Z,990.61
2018-01-18T10:37:23.080Z,990.76
2018-01-18T10:38:23.082Z,990.47
2018-01-18T10:39:44.080Z,990.37
2018-01-18T10:40:23.063Z,990.58
2018-01-18T10:41:23.071Z,990.72
2018-01-18T10:42:23.074Z,990.72
2018-01-18T10:43:23.064Z,990.86
2018-01-18T10:44:23.051Z,990.60
2018-01-18T10:45:44.070Z,990.91
2018-01-18T10:46:23.044Z,991.09
2018-01-18T10:47:23.039Z,991.70
2018-01-18T10:48:23.044Z,990.95
2018-01-18T10:49:23.029Z,991.07
2018-01-18T10:50:23.019Z,991.19
2018-01-18T10:51:44.034Z,991.12
2018-01-18T10:52:23.025Z,991.16
2018-01-18T10:53:23.004Z,991.23
2018-01-18T10:54:23.020Z,991.23
2018-01-18T10:55:23.026Z,991.33
2018-01-18T10:56:23.006Z,991.12
2018-01-18T10:57:44.014Z,991.50
2018-01-18T10:58:23.000Z,991.56
2018-01-18T10:59:23.006Z,991.59
2018-01-18T11:00:22.994Z,991.63
2018-01-18T11:01:22.995Z,991.77
2018-01-18T11:02:22.984Z,991.78
2018-01-18T11:03:44.002Z,991.92
2018-01-18T11:04:23.006Z,992.03
2018-01-18T11:05:22.979Z,992.04
2018-01-18T11:06:22.974Z,992.01
2018-01-18T11:07:22.966Z,992.04
2018-01-18T11:08:22.967Z,992.11
2018-01-18T11:09:43.967Z,992.22
2018-01-18T11:10:22.956Z,992.32
2018-01-18T11:11:22.951Z,992.16
2018-01-18T11:12:22.948Z,992.38
2018-01-18T11:13:22.944Z,992.46
2018-01-18T11:14:22.952Z,992.59
2018-01-18T11:15:43.941Z,992.38
2018-01-18T11:16:22.934Z,992.32
2018-01-18T11:17:22.944Z,992.57
2018-01-18T11:18:22.925Z,992.67
2018-01-18T11:19:22.927Z,992.68
2018-01-18T11:20:22.921Z,992.64
2018-01-18T11:21:43.924Z,992.71
2018-01-18T11:22:22.915Z,992.50
2018-01-18T11:23:22.921Z,992.71
2018-01-18T11:24:22.911Z,992.75
2018-01-18T11:25:22.900Z,992.75
2018-01-18T11:26:22.912Z,992.75
2018-01-18T11:27:43.892Z,992.98
2018-01-18T11:28:22.893Z,992.94
2018-01-18T11:29:22.881Z,992.90
2018-01-18T11:30:22.878Z,992.86
2018-01-18T11:31:22.881Z,992.87
2018-01-18T11:32:22.878Z,992.92
2018-01-18T11:33:43.897Z,992.95
2018-01-18T11:34:22.865Z,993.06
2018-01-18T11:35:22.872Z,993.03
2018-01-18T11:36:22.851Z,992.99
2018-01-18T11:37:22.862Z,993.06
2018-01-18T11:38:22.871Z,993.08
2018-01-18T11:39:43.856Z,993.07
2018-01-18T11:40:22.850Z,993.47
2018-01-18T11:41:22.831Z,993.52
2018-01-18T11:42:22.846Z,993.36
2018-01-18T11:43:22.855Z,993.32
2018-01-18T11:44:22.830Z,993.40
2018-01-18T11:45:43.840Z,993.43
2018-01-18T11:46:22.832Z,993.46
2018-01-18T11:47:22.823Z,993.45
2018-01-18T11:48:22.826Z,993.49
2018-01-18T11:49:22.812Z,993.64
2018-01-18T11:50:22.815Z,993.49
2018-01-18T11:51:43.813Z,993.61
2018-01-18T11:52:22.796Z,993.58
2018-01-18T11:53:22.806Z,993.60
2018-01-18T11:54:22.795Z,993.70
2018-01-18T11:55:22.794Z,993.69
2018-01-18T11:56:22.788Z,993.84
2018-01-18T11:57:43.806Z,993.80
2018-01-18T11:58:22.790Z,993.76
2018-01-18T11:59:22.782Z,993.84
2018-01-18T12:00:22.783Z,993.85
2018-01-18T12:01:22.773Z,994.00
2018-01-18T12:02:22.814Z,993.75
2018-01-18T12:03:43.768Z,993.80
2018-01-18T12:04:22.760Z,993.93
2018-01-18T12:05:22.750Z,993.85
2018-01-18T12:06:22.751Z,993.95
2018-01-18T12:07:22.743Z,994.01
2018-01-18T12:08:22.749Z,993.93
2018-01-18T12:09:43.751Z,994.16
2018-01-18T12:10:22.732Z,994.09
2018-01-18T12:11:22.732Z,994.20
2018-01-18T12:12:22.733Z,994.27
2018-01-18T12:13:22.722Z,994.12
2018-01-18T12:14:22.724Z,994.09
2018-01-18T12:15:43.741Z,994.15
2018-01-18T12:16:22.715Z,994.27
2018-01-18T12:17:22.720Z,994.15
2018-01-18T12:18:22.702Z,994.22
2018-01-18T12:19:22.712Z,994.28
2018-01-18T12:20:22.703Z,994.42
2018-01-18T12:21:43.710Z,994.42
2018-01-18T12:22:22.700Z,994.31
2018-01-18T12:23:22.698Z,994.36